sensor_id;sensor_type;location;lat;lon;timestamp;temperature;humidity
26954;DHT22;14508;50.924;11.600;2023-02-23T00:01:24;7.80;99.90
26954;DHT22;14508;50.924;11.600;2023-02-23T00:03:54;7.80;99.90
26954;DHT22;14508;50.924;11.600;2023-02-23T00:06:24;7.80;99.90
26954;DHT22;14508;50.924;11.600;2023-02-23T00:08:53;7.80;99.90
26954;DHT22;14508;50.924;11.600;2023-02-23T00:11:21;7.80;99.90
26954;DHT22;14508;50.924;11.600;2023-02-23T00:13:49;7.90;99.90
26954;DHT22;14508;50.924;11.600;2023-02-23T00:16:19;7.90;99.90
26954;DHT22;14508;50.924;11.600;2023-02-23T00:18:49;7.80;99.90
26954;DHT22;14508;50.924;11.600;2023-02-23T00:21:22;7.90;99.90
26954;DHT22;14508;50.924;11.600;2023-02-23T00:23:53;7.90;99.90
26954;DHT22;14508;50.924;11.600;2023-02-23T00:26:23;7.90;99.90
26954;DHT22;14508;50.924;11.600;2023-02-23T00:28:52;7.90;99.90
26954;DHT22;14508;50.924;11.600;2023-02-23T00:31:21;7.90;99.90
26954;DHT22;14508;50.924;11.600;2023-02-23T00:33:51;7.90;99.90
26954;DHT22;14508;50.924;11.600;2023-02-23T00:36:21;7.90;99.90
26954;DHT22;14508;50.924;11.600;2023-02-23T00:38:53;7.90;99.90
26954;DHT22;14508;50.924;11.600;2023-02-23T00:41:21;7.90;99.90
26954;DHT22;14508;50.924;11.600;2023-02-23T00:43:55;7.90;99.90
26954;DHT22;14508;50.924;11.600;2023-02-23T00:46:25;7.90;99.90
26954;DHT22;14508;50.924;11.600;2023-02-23T00:48:54;7.90;99.90
26954;DHT22;14508;50.924;11.600;2023-02-23T00:51:24;7.90;99.90
26954;DHT22;14508;50.924;11.600;2023-02-23T00:53:55;8.00;99.90
26954;DHT22;14508;50.924;11.600;2023-02-23T00:56:22;7.90;99.90
26954;DHT22;14508;50.924;11.600;2023-02-23T00:58:50;8.00;99.90
26954;DHT22;14508;50.924;11.600;2023-02-23T01:01:18;8.00;99.90
26954;DHT22;14508;50.924;11.600;2023-02-23T01:03:50;8.00;99.90
26954;DHT22;14508;50.924;11.600;2023-02-23T01:06:19;8.00;99.90
26954;DHT22;14508;50.924;11.600;2023-02-23T01:08:48;8.10;99.90
26954;DHT22;14508;50.924;11.600;2023-02-23T01:11:19;8.10;99.90
26954;DHT22;14508;50.924;11.600;2023-02-23T01:13:51;8.10;99.90
26954;DHT22;14508;50.924;11.600;2023-02-23T01:16:21;8.10;99.90
26954;DHT22;14508;50.924;11.600;2023-02-23T01:18:51;8.10;99.90
26954;DHT22;14508;50.924;11.600;2023-02-23T01:21:22;8.10;99.90
26954;DHT22;14508;50.924;11.600;2023-02-23T01:23:51;8.10;99.90
26954;DHT22;14508;50.924;11.600;2023-02-23T01:26:22;8.10;99.90
26954;DHT22;14508;50.924;11.600;2023-02-23T01:28:51;8.10;99.90
26954;DHT22;14508;50.924;11.600;2023-02-23T01:31:20;8.20;99.90
26954;DHT22;14508;50.924;11.600;2023-02-23T01:33:52;8.20;99.90
26954;DHT22;14508;50.924;11.600;2023-02-23T01:36:21;8.20;99.90
26954;DHT22;14508;50.924;11.600;2023-02-23T01:38:52;8.20;99.90
26954;DHT22;14508;50.924;11.600;2023-02-23T01:41:24;8.20;99.90
26954;DHT22;14508;50.924;11.600;2023-02-23T01:43:55;8.20;99.90
26954;DHT22;14508;50.924;11.600;2023-02-23T01:46:23;8.20;99.90
26954;DHT22;14508;50.924;11.600;2023-02-23T01:48:52;8.20;99.90
26954;DHT22;14508;50.924;11.600;2023-02-23T01:51:24;8.20;99.90
26954;DHT22;14508;50.924;11.600;2023-02-23T01:53:57;8.20;99.90
26954;DHT22;14508;50.924;11.600;2023-02-23T01:56:30;8.20;99.90
26954;DHT22;14508;50.924;11.600;2023-02-23T01:59:04;8.20;99.90
26954;DHT22;14508;50.924;11.600;2023-02-23T02:01:34;8.20;99.90
26954;DHT22;14508;50.924;11.600;2023-02-23T02:04:04;8.20;99.90
26954;DHT22;14508;50.924;11.600;2023-02-23T02:06:34;8.30;99.90
26954;DHT22;14508;50.924;11.600;2023-02-23T02:09:06;8.20;99.90
26954;DHT22;14508;50.924;11.600;2023-02-23T02:11:37;8.20;99.90
26954;DHT22;14508;50.924;11.600;2023-02-23T02:14:07;8.30;99.90
26954;DHT22;14508;50.924;11.600;2023-02-23T02:17:00;8.30;99.90
26954;DHT22;14508;50.924;11.600;2023-02-23T02:19:58;8.30;99.90
26954;DHT22;14508;50.924;11.600;2023-02-23T02:26:00;8.30;99.90
26954;DHT22;14508;50.924;11.600;2023-02-23T02:31:48;8.30;99.90
26954;DHT22;14508;50.924;11.600;2023-02-23T02:34:47;8.30;99.90
26954;DHT22;14508;50.924;11.600;2023-02-23T02:37:25;8.30;99.90
26954;DHT22;14508;50.924;11.600;2023-02-23T02:39:58;8.30;99.90
26954;DHT22;14508;50.924;11.600;2023-02-23T02:42:53;8.20;99.90
26954;DHT22;14508;50.924;11.600;2023-02-23T02:45:32;8.20;99.90
26954;DHT22;14508;50.924;11.600;2023-02-23T02:48:07;8.20;99.90
26954;DHT22;14508;50.924;11.600;2023-02-23T02:50:42;8.20;99.90
26954;DHT22;14508;50.924;11.600;2023-02-23T02:53:17;8.10;99.90
26954;DHT22;14508;50.924;11.600;2023-02-23T02:55:47;8.10;99.90
26954;DHT22;14508;50.924;11.600;2023-02-23T02:58:16;8.10;99.90
26954;DHT22;14508;50.924;11.600;2023-02-23T03:00:46;8.10;99.90
26954;DHT22;14508;50.924;11.600;2023-02-23T03:03:35;8.10;99.90
26954;DHT22;14508;50.924;11.600;2023-02-23T03:06:28;8.10;99.90
26954;DHT22;14508;50.924;11.600;2023-02-23T03:09:24;8.10;99.90
26954;DHT22;14508;50.924;11.600;2023-02-23T03:12:20;8.10;99.90
26954;DHT22;14508;50.924;11.600;2023-02-23T03:15:20;8.10;99.90
26954;DHT22;14508;50.924;11.600;2023-02-23T03:18:21;8.10;99.90
26954;DHT22;14508;50.924;11.600;2023-02-23T03:21:14;8.10;99.90
26954;DHT22;14508;50.924;11.600;2023-02-23T03:24:08;8.10;99.90
26954;DHT22;14508;50.924;11.600;2023-02-23T03:27:02;8.10;99.90
26954;DHT22;14508;50.924;11.600;2023-02-23T03:29:53;8.10;99.90
26954;DHT22;14508;50.924;11.600;2023-02-23T03:32:46;8.00;99.90
26954;DHT22;14508;50.924;11.600;2023-02-23T03:35:41;8.00;99.90
26954;DHT22;14508;50.924;11.600;2023-02-23T03:38:34;8.00;99.90
26954;DHT22;14508;50.924;11.600;2023-02-23T03:41:22;8.00;99.90
26954;DHT22;14508;50.924;11.600;2023-02-23T03:44:12;8.00;99.90
26954;DHT22;14508;50.924;11.600;2023-02-23T03:47:00;8.00;99.90
26954;DHT22;14508;50.924;11.600;2023-02-23T03:49:49;8.00;99.90
26954;DHT22;14508;50.924;11.600;2023-02-23T03:52:40;8.00;99.90
26954;DHT22;14508;50.924;11.600;2023-02-23T03:55:31;8.00;99.90
26954;DHT22;14508;50.924;11.600;2023-02-23T03:58:21;8.10;99.90
26954;DHT22;14508;50.924;11.600;2023-02-23T04:01:11;8.10;99.90
26954;DHT22;14508;50.924;11.600;2023-02-23T04:03:58;8.10;99.90
26954;DHT22;14508;50.924;11.600;2023-02-23T04:06:46;8.10;99.90
26954;DHT22;14508;50.924;11.600;2023-02-23T04:09:32;8.10;99.90
26954;DHT22;14508;50.924;11.600;2023-02-23T04:12:21;8.10;99.90
26954;DHT22;14508;50.924;11.600;2023-02-23T04:15:12;8.10;99.90
26954;DHT22;14508;50.924;11.600;2023-02-23T04:17:42;8.10;99.90
26954;DHT22;14508;50.924;11.600;2023-02-23T04:20:12;8.10;99.90
26954;DHT22;14508;50.924;11.600;2023-02-23T04:22:40;8.10;99.90
26954;DHT22;14508;50.924;11.600;2023-02-23T04:25:09;8.00;99.90
26954;DHT22;14508;50.924;11.600;2023-02-23T04:27:37;8.00;99.90
26954;DHT22;14508;50.924;11.600;2023-02-23T04:30:06;7.90;99.90
26954;DHT22;14508;50.924;11.600;2023-02-23T04:32:37;7.90;99.90
26954;DHT22;14508;50.924;11.600;2023-02-23T04:35:08;7.90;99.90
26954;DHT22;14508;50.924;11.600;2023-02-23T04:37:36;7.90;99.90
26954;DHT22;14508;50.924;11.600;2023-02-23T04:40:05;7.90;99.90
26954;DHT22;14508;50.924;11.600;2023-02-23T04:42:33;7.90;99.90
26954;DHT22;14508;50.924;11.600;2023-02-23T04:45:01;7.90;99.90
26954;DHT22;14508;50.924;11.600;2023-02-23T04:47:28;7.90;99.90
26954;DHT22;14508;50.924;11.600;2023-02-23T04:49:56;7.90;99.90
26954;DHT22;14508;50.924;11.600;2023-02-23T04:52:25;7.90;99.90
26954;DHT22;14508;50.924;11.600;2023-02-23T04:54:53;8.00;99.90
26954;DHT22;14508;50.924;11.600;2023-02-23T04:57:21;8.00;99.90
26954;DHT22;14508;50.924;11.600;2023-02-23T04:59:49;8.00;99.90
26954;DHT22;14508;50.924;11.600;2023-02-23T05:02:17;8.10;99.90
26954;DHT22;14508;50.924;11.600;2023-02-23T05:04:44;8.10;99.90
26954;DHT22;14508;50.924;11.600;2023-02-23T05:07:12;8.10;99.90
26954;DHT22;14508;50.924;11.600;2023-02-23T05:09:41;8.10;99.90
26954;DHT22;14508;50.924;11.600;2023-02-23T05:12:09;8.20;99.90
26954;DHT22;14508;50.924;11.600;2023-02-23T05:14:37;8.20;99.90
26954;DHT22;14508;50.924;11.600;2023-02-23T05:17:05;8.20;99.90
26954;DHT22;14508;50.924;11.600;2023-02-23T05:19:34;8.20;99.90
26954;DHT22;14508;50.924;11.600;2023-02-23T05:22:03;8.20;99.90
26954;DHT22;14508;50.924;11.600;2023-02-23T05:24:30;8.20;99.90
26954;DHT22;14508;50.924;11.600;2023-02-23T05:26:59;8.20;99.90
26954;DHT22;14508;50.924;11.600;2023-02-23T05:29:27;8.20;99.90
26954;DHT22;14508;50.924;11.600;2023-02-23T05:31:55;8.20;99.90
26954;DHT22;14508;50.924;11.600;2023-02-23T05:34:23;8.20;99.90
26954;DHT22;14508;50.924;11.600;2023-02-23T05:36:51;8.10;99.90
26954;DHT22;14508;50.924;11.600;2023-02-23T05:39:19;8.10;99.90
26954;DHT22;14508;50.924;11.600;2023-02-23T05:41:47;8.10;99.90
26954;DHT22;14508;50.924;11.600;2023-02-23T05:44:17;8.00;99.90
26954;DHT22;14508;50.924;11.600;2023-02-23T05:46:45;8.00;99.90
26954;DHT22;14508;50.924;11.600;2023-02-23T05:49:13;8.00;99.90
26954;DHT22;14508;50.924;11.600;2023-02-23T05:51:41;8.00;99.90
26954;DHT22;14508;50.924;11.600;2023-02-23T05:54:09;8.10;99.90
26954;DHT22;14508;50.924;11.600;2023-02-23T05:56:37;8.10;99.90
26954;DHT22;14508;50.924;11.600;2023-02-23T05:59:05;8.10;99.90
26954;DHT22;14508;50.924;11.600;2023-02-23T06:01:34;8.10;99.90
26954;DHT22;14508;50.924;11.600;2023-02-23T06:04:03;8.10;99.90
26954;DHT22;14508;50.924;11.600;2023-02-23T06:06:32;8.20;99.90
26954;DHT22;14508;50.924;11.600;2023-02-23T06:09:00;8.20;99.90
26954;DHT22;14508;50.924;11.600;2023-02-23T06:11:28;8.20;99.90
26954;DHT22;14508;50.924;11.600;2023-02-23T06:13:57;8.20;99.90
26954;DHT22;14508;50.924;11.600;2023-02-23T06:16:26;8.20;99.90
26954;DHT22;14508;50.924;11.600;2023-02-23T06:18:55;8.20;99.90
26954;DHT22;14508;50.924;11.600;2023-02-23T06:21:23;8.20;99.90
26954;DHT22;14508;50.924;11.600;2023-02-23T06:23:51;8.20;99.90
26954;DHT22;14508;50.924;11.600;2023-02-23T06:26:19;8.20;99.90
26954;DHT22;14508;50.924;11.600;2023-02-23T06:28:47;8.20;99.90
26954;DHT22;14508;50.924;11.600;2023-02-23T06:31:16;8.20;99.90
26954;DHT22;14508;50.924;11.600;2023-02-23T06:33:44;8.20;99.90
26954;DHT22;14508;50.924;11.600;2023-02-23T06:36:14;8.20;99.90
26954;DHT22;14508;50.924;11.600;2023-02-23T06:38:42;8.20;99.90
26954;DHT22;14508;50.924;11.600;2023-02-23T06:41:11;8.20;99.90
26954;DHT22;14508;50.924;11.600;2023-02-23T06:43:39;8.20;99.90
26954;DHT22;14508;50.924;11.600;2023-02-23T06:46:07;8.20;99.90
26954;DHT22;14508;50.924;11.600;2023-02-23T06:48:35;8.20;99.90
26954;DHT22;14508;50.924;11.600;2023-02-23T06:51:03;8.10;99.90
26954;DHT22;14508;50.924;11.600;2023-02-23T06:53:34;8.10;99.90
26954;DHT22;14508;50.924;11.600;2023-02-23T06:56:02;8.10;99.90
26954;DHT22;14508;50.924;11.600;2023-02-23T06:58:30;8.20;99.90
26954;DHT22;14508;50.924;11.600;2023-02-23T07:00:58;8.20;99.90
26954;DHT22;14508;50.924;11.600;2023-02-23T07:03:26;8.20;99.90
26954;DHT22;14508;50.924;11.600;2023-02-23T07:05:54;8.20;99.90
26954;DHT22;14508;50.924;11.600;2023-02-23T07:08:22;8.20;99.90
26954;DHT22;14508;50.924;11.600;2023-02-23T07:10:51;8.20;99.90
26954;DHT22;14508;50.924;11.600;2023-02-23T07:13:19;8.30;99.90
26954;DHT22;14508;50.924;11.600;2023-02-23T07:15:47;8.30;99.90
26954;DHT22;14508;50.924;11.600;2023-02-23T07:18:15;8.30;99.90
26954;DHT22;14508;50.924;11.600;2023-02-23T07:20:43;8.30;99.90
26954;DHT22;14508;50.924;11.600;2023-02-23T07:23:12;8.30;99.90
26954;DHT22;14508;50.924;11.600;2023-02-23T07:25:40;8.40;99.90
26954;DHT22;14508;50.924;11.600;2023-02-23T07:28:09;8.40;99.90
26954;DHT22;14508;50.924;11.600;2023-02-23T07:30:39;8.50;99.90
26954;DHT22;14508;50.924;11.600;2023-02-23T07:33:07;8.50;99.90
26954;DHT22;14508;50.924;11.600;2023-02-23T07:35:35;8.50;99.90
26954;DHT22;14508;50.924;11.600;2023-02-23T07:38:03;8.60;99.90
26954;DHT22;14508;50.924;11.600;2023-02-23T07:40:33;8.60;99.90
26954;DHT22;14508;50.924;11.600;2023-02-23T07:43:00;8.60;99.90
26954;DHT22;14508;50.924;11.600;2023-02-23T07:45:29;8.60;99.90
26954;DHT22;14508;50.924;11.600;2023-02-23T07:47:57;8.60;99.90
26954;DHT22;14508;50.924;11.600;2023-02-23T07:50:25;8.70;99.90
26954;DHT22;14508;50.924;11.600;2023-02-23T07:52:53;8.80;99.90
26954;DHT22;14508;50.924;11.600;2023-02-23T07:55:21;8.90;99.90
26954;DHT22;14508;50.924;11.600;2023-02-23T07:57:49;9.00;99.90
26954;DHT22;14508;50.924;11.600;2023-02-23T08:00:17;9.10;99.90
26954;DHT22;14508;50.924;11.600;2023-02-23T08:02:47;9.20;99.90
26954;DHT22;14508;50.924;11.600;2023-02-23T08:05:15;9.30;99.90
26954;DHT22;14508;50.924;11.600;2023-02-23T08:07:42;9.30;99.90
26954;DHT22;14508;50.924;11.600;2023-02-23T08:10:11;9.40;99.90
26954;DHT22;14508;50.924;11.600;2023-02-23T08:12:39;9.50;99.90
26954;DHT22;14508;50.924;11.600;2023-02-23T08:15:08;9.60;99.90
26954;DHT22;14508;50.924;11.600;2023-02-23T08:17:37;9.60;99.90
26954;DHT22;14508;50.924;11.600;2023-02-23T08:20:08;9.70;99.90
26954;DHT22;14508;50.924;11.600;2023-02-23T08:22:36;9.70;99.90
26954;DHT22;14508;50.924;11.600;2023-02-23T08:25:15;9.80;99.90
26954;DHT22;14508;50.924;11.600;2023-02-23T08:27:44;9.90;99.90
26954;DHT22;14508;50.924;11.600;2023-02-23T08:30:13;10.10;99.90
26954;DHT22;14508;50.924;11.600;2023-02-23T08:32:41;10.20;99.90
26954;DHT22;14508;50.924;11.600;2023-02-23T08:35:11;10.30;99.90
26954;DHT22;14508;50.924;11.600;2023-02-23T08:37:39;10.40;99.90
26954;DHT22;14508;50.924;11.600;2023-02-23T08:40:08;10.50;99.90
26954;DHT22;14508;50.924;11.600;2023-02-23T08:42:37;10.60;99.90
26954;DHT22;14508;50.924;11.600;2023-02-23T08:45:05;10.70;99.90
26954;DHT22;14508;50.924;11.600;2023-02-23T08:47:34;10.80;99.90
26954;DHT22;14508;50.924;11.600;2023-02-23T08:50:03;10.90;99.90
26954;DHT22;14508;50.924;11.600;2023-02-23T08:52:32;11.00;99.90
26954;DHT22;14508;50.924;11.600;2023-02-23T08:55:00;11.20;99.90
26954;DHT22;14508;50.924;11.600;2023-02-23T08:57:30;11.30;99.90
26954;DHT22;14508;50.924;11.600;2023-02-23T08:59:58;11.40;99.90
26954;DHT22;14508;50.924;11.600;2023-02-23T09:02:27;11.60;99.90
26954;DHT22;14508;50.924;11.600;2023-02-23T09:04:54;11.80;99.90
26954;DHT22;14508;50.924;11.600;2023-02-23T09:07:23;11.90;99.90
26954;DHT22;14508;50.924;11.600;2023-02-23T09:09:54;12.00;99.90
26954;DHT22;14508;50.924;11.600;2023-02-23T09:12:23;12.10;99.90
26954;DHT22;14508;50.924;11.600;2023-02-23T09:14:50;12.10;99.90
26954;DHT22;14508;50.924;11.600;2023-02-23T09:17:19;12.20;99.90
26954;DHT22;14508;50.924;11.600;2023-02-23T09:19:48;12.30;99.90
26954;DHT22;14508;50.924;11.600;2023-02-23T09:22:16;12.40;99.90
26954;DHT22;14508;50.924;11.600;2023-02-23T09:24:45;12.50;99.90
26954;DHT22;14508;50.924;11.600;2023-02-23T09:27:14;12.60;99.90
26954;DHT22;14508;50.924;11.600;2023-02-23T09:29:42;12.70;99.90
26954;DHT22;14508;50.924;11.600;2023-02-23T09:32:10;12.90;99.90
26954;DHT22;14508;50.924;11.600;2023-02-23T09:34:38;13.00;99.90
26954;DHT22;14508;50.924;11.600;2023-02-23T09:37:06;13.10;99.90
26954;DHT22;14508;50.924;11.600;2023-02-23T09:39:34;13.20;99.90
26954;DHT22;14508;50.924;11.600;2023-02-23T09:42:22;13.20;99.90
26954;DHT22;14508;50.924;11.600;2023-02-23T09:45:03;13.30;99.90
26954;DHT22;14508;50.924;11.600;2023-02-23T09:47:39;13.40;99.90
26954;DHT22;14508;50.924;11.600;2023-02-23T09:50:17;13.50;99.90
26954;DHT22;14508;50.924;11.600;2023-02-23T09:52:50;13.50;99.90
26954;DHT22;14508;50.924;11.600;2023-02-23T09:55:20;13.60;99.90
26954;DHT22;14508;50.924;11.600;2023-02-23T09:57:49;13.60;99.90
26954;DHT22;14508;50.924;11.600;2023-02-23T10:00:20;13.70;99.90
26954;DHT22;14508;50.924;11.600;2023-02-23T10:03:01;13.80;99.90
26954;DHT22;14508;50.924;11.600;2023-02-23T10:05:38;13.90;99.90
26954;DHT22;14508;50.924;11.600;2023-02-23T10:08:20;14.00;99.90
26954;DHT22;14508;50.924;11.600;2023-02-23T10:10:56;14.10;99.90
26954;DHT22;14508;50.924;11.600;2023-02-23T10:13:36;14.20;99.90
26954;DHT22;14508;50.924;11.600;2023-02-23T10:16:13;14.40;99.90
26954;DHT22;14508;50.924;11.600;2023-02-23T10:18:48;14.50;99.90
26954;DHT22;14508;50.924;11.600;2023-02-23T10:21:22;14.60;99.90
26954;DHT22;14508;50.924;11.600;2023-02-23T10:23:59;14.70;99.90
26954;DHT22;14508;50.924;11.600;2023-02-23T10:26:33;14.80;99.90
26954;DHT22;14508;50.924;11.600;2023-02-23T10:29:18;14.90;99.90
26954;DHT22;14508;50.924;11.600;2023-02-23T10:31:50;14.90;99.90
26954;DHT22;14508;50.924;11.600;2023-02-23T10:34:18;14.90;99.90
26954;DHT22;14508;50.924;11.600;2023-02-23T10:36:52;15.00;99.90
26954;DHT22;14508;50.924;11.600;2023-02-23T10:39:24;15.00;99.00
26954;DHT22;14508;50.924;11.600;2023-02-23T10:41:53;15.00;97.90
26954;DHT22;14508;50.924;11.600;2023-02-23T10:44:24;15.00;97.30
26954;DHT22;14508;50.924;11.600;2023-02-23T10:46:55;14.90;96.90
26954;DHT22;14508;50.924;11.600;2023-02-23T10:49:29;14.90;96.30
26954;DHT22;14508;50.924;11.600;2023-02-23T10:51:58;14.80;96.40
26954;DHT22;14508;50.924;11.600;2023-02-23T10:54:37;14.80;96.60
26954;DHT22;14508;50.924;11.600;2023-02-23T10:57:06;14.70;96.80
26954;DHT22;14508;50.924;11.600;2023-02-23T10:59:35;14.70;97.10
26954;DHT22;14508;50.924;11.600;2023-02-23T11:02:15;14.70;96.80
26954;DHT22;14508;50.924;11.600;2023-02-23T11:04:55;14.70;96.10
26954;DHT22;14508;50.924;11.600;2023-02-23T11:07:25;14.70;96.80
26954;DHT22;14508;50.924;11.600;2023-02-23T11:09:55;14.70;97.30
26954;DHT22;14508;50.924;11.600;2023-02-23T11:12:24;14.70;97.20
26954;DHT22;14508;50.924;11.600;2023-02-23T11:14:57;14.70;97.40
26954;DHT22;14508;50.924;11.600;2023-02-23T11:17:30;14.70;97.40
26954;DHT22;14508;50.924;11.600;2023-02-23T11:20:01;14.70;97.20
26954;DHT22;14508;50.924;11.600;2023-02-23T11:22:32;14.70;97.50
26954;DHT22;14508;50.924;11.600;2023-02-23T11:25:03;14.70;98.00
26954;DHT22;14508;50.924;11.600;2023-02-23T11:27:45;14.80;97.90
26954;DHT22;14508;50.924;11.600;2023-02-23T11:30:20;14.80;97.90
26954;DHT22;14508;50.924;11.600;2023-02-23T11:32:51;14.90;98.20
26954;DHT22;14508;50.924;11.600;2023-02-23T11:35:28;14.90;97.10
26954;DHT22;14508;50.924;11.600;2023-02-23T11:37:56;14.80;97.10
26954;DHT22;14508;50.924;11.600;2023-02-23T11:40:26;14.80;96.70
26954;DHT22;14508;50.924;11.600;2023-02-23T11:42:56;14.80;95.60
26954;DHT22;14508;50.924;11.600;2023-02-23T11:45:27;14.80;95.60
26954;DHT22;14508;50.924;11.600;2023-02-23T11:48:00;14.80;95.90
26954;DHT22;14508;50.924;11.600;2023-02-23T11:50:31;14.90;96.10
26954;DHT22;14508;50.924;11.600;2023-02-23T11:53:03;15.00;95.80
26954;DHT22;14508;50.924;11.600;2023-02-23T11:55:33;15.10;95.50
26954;DHT22;14508;50.924;11.600;2023-02-23T11:58:08;15.20;95.30
26954;DHT22;14508;50.924;11.600;2023-02-23T12:00:38;15.30;95.40
26954;DHT22;14508;50.924;11.600;2023-02-23T12:03:06;15.30;95.40
26954;DHT22;14508;50.924;11.600;2023-02-23T12:05:49;15.30;94.80
26954;DHT22;14508;50.924;11.600;2023-02-23T12:08:27;15.30;94.50
26954;DHT22;14508;50.924;11.600;2023-02-23T12:11:02;15.20;94.50
26954;DHT22;14508;50.924;11.600;2023-02-23T12:13:33;15.10;94.60
26954;DHT22;14508;50.924;11.600;2023-02-23T12:16:09;15.00;95.00
26954;DHT22;14508;50.924;11.600;2023-02-23T12:18:43;14.80;95.20
26954;DHT22;14508;50.924;11.600;2023-02-23T12:21:20;14.70;95.70
26954;DHT22;14508;50.924;11.600;2023-02-23T12:23:57;14.50;96.50
26954;DHT22;14508;50.924;11.600;2023-02-23T12:26:30;14.50;97.60
26954;DHT22;14508;50.924;11.600;2023-02-23T12:29:04;14.50;97.50
26954;DHT22;14508;50.924;11.600;2023-02-23T12:31:41;14.60;97.70
26954;DHT22;14508;50.924;11.600;2023-02-23T12:34:16;14.60;97.10
26954;DHT22;14508;50.924;11.600;2023-02-23T12:36:46;14.70;97.40
26954;DHT22;14508;50.924;11.600;2023-02-23T12:39:21;14.70;97.60
26954;DHT22;14508;50.924;11.600;2023-02-23T12:41:57;14.70;97.80
26954;DHT22;14508;50.924;11.600;2023-02-23T12:44:36;14.60;97.60
26954;DHT22;14508;50.924;11.600;2023-02-23T12:47:15;14.60;98.20
26954;DHT22;14508;50.924;11.600;2023-02-23T12:49:49;14.50;98.70
26954;DHT22;14508;50.924;11.600;2023-02-23T12:52:20;14.40;99.30
26954;DHT22;14508;50.924;11.600;2023-02-23T12:54:51;14.40;99.90
26954;DHT22;14508;50.924;11.600;2023-02-23T12:57:24;14.40;99.90
26954;DHT22;14508;50.924;11.600;2023-02-23T13:02:57;14.30;99.90
26954;DHT22;14508;50.924;11.600;2023-02-23T13:05:37;14.20;99.90
26954;DHT22;14508;50.924;11.600;2023-02-23T13:08:17;14.10;99.90
26954;DHT22;14508;50.924;11.600;2023-02-23T13:10:52;14.10;99.90
26954;DHT22;14508;50.924;11.600;2023-02-23T13:13:29;14.00;99.90
26954;DHT22;14508;50.924;11.600;2023-02-23T13:16:02;13.90;99.90
26954;DHT22;14508;50.924;11.600;2023-02-23T13:18:37;13.90;99.90
26954;DHT22;14508;50.924;11.600;2023-02-23T13:21:12;13.90;99.90
26954;DHT22;14508;50.924;11.600;2023-02-23T13:23:47;13.80;99.90
26954;DHT22;14508;50.924;11.600;2023-02-23T13:26:25;13.70;99.90
26954;DHT22;14508;50.924;11.600;2023-02-23T13:29:01;13.70;99.90
26954;DHT22;14508;50.924;11.600;2023-02-23T13:31:33;13.50;99.90
26954;DHT22;14508;50.924;11.600;2023-02-23T13:34:05;13.40;99.90
26954;DHT22;14508;50.924;11.600;2023-02-23T13:36:36;13.40;99.90
26954;DHT22;14508;50.924;11.600;2023-02-23T13:39:42;13.30;99.90
26954;DHT22;14508;50.924;11.600;2023-02-23T13:42:33;13.20;99.90
26954;DHT22;14508;50.924;11.600;2023-02-23T13:45:20;13.10;99.90
26954;DHT22;14508;50.924;11.600;2023-02-23T13:47:55;13.00;99.90
26954;DHT22;14508;50.924;11.600;2023-02-23T13:50:29;13.00;99.90
26954;DHT22;14508;50.924;11.600;2023-02-23T13:53:01;12.90;99.90
26954;DHT22;14508;50.924;11.600;2023-02-23T13:55:46;12.90;99.90
26954;DHT22;14508;50.924;11.600;2023-02-23T13:58:20;12.90;99.90
26954;DHT22;14508;50.924;11.600;2023-02-23T14:01:03;12.90;99.90
26954;DHT22;14508;50.924;11.600;2023-02-23T14:03:36;12.90;99.90
26954;DHT22;14508;50.924;11.600;2023-02-23T14:06:11;12.90;99.90
26954;DHT22;14508;50.924;11.600;2023-02-23T14:08:41;12.90;99.90
26954;DHT22;14508;50.924;11.600;2023-02-23T14:11:37;12.90;99.90
26954;DHT22;14508;50.924;11.600;2023-02-23T14:14:11;12.90;99.90
26954;DHT22;14508;50.924;11.600;2023-02-23T14:16:42;12.90;99.90
26954;DHT22;14508;50.924;11.600;2023-02-23T14:19:34;12.90;99.90
26954;DHT22;14508;50.924;11.600;2023-02-23T14:22:07;12.80;99.90
26954;DHT22;14508;50.924;11.600;2023-02-23T14:24:36;12.80;99.90
26954;DHT22;14508;50.924;11.600;2023-02-23T14:27:18;12.80;99.90
26954;DHT22;14508;50.924;11.600;2023-02-23T14:30:16;12.80;99.90
26954;DHT22;14508;50.924;11.600;2023-02-23T14:32:48;12.70;99.90
26954;DHT22;14508;50.924;11.600;2023-02-23T14:35:41;12.70;99.90
26954;DHT22;14508;50.924;11.600;2023-02-23T14:38:28;12.70;99.90
26954;DHT22;14508;50.924;11.600;2023-02-23T14:41:13;12.60;99.90
26954;DHT22;14508;50.924;11.600;2023-02-23T14:43:43;12.60;99.90
26954;DHT22;14508;50.924;11.600;2023-02-23T14:46:17;12.60;99.90
26954;DHT22;14508;50.924;11.600;2023-02-23T14:48:58;12.60;99.90
26954;DHT22;14508;50.924;11.600;2023-02-23T14:51:35;12.60;99.90
26954;DHT22;14508;50.924;11.600;2023-02-23T14:54:25;12.60;99.90
26954;DHT22;14508;50.924;11.600;2023-02-23T14:56:54;12.60;99.90
26954;DHT22;14508;50.924;11.600;2023-02-23T14:59:25;12.60;99.90
26954;DHT22;14508;50.924;11.600;2023-02-23T15:01:58;12.50;99.90
26954;DHT22;14508;50.924;11.600;2023-02-23T15:04:27;12.50;99.90
26954;DHT22;14508;50.924;11.600;2023-02-23T15:06:59;12.40;99.90
26954;DHT22;14508;50.924;11.600;2023-02-23T15:09:32;12.40;99.90
26954;DHT22;14508;50.924;11.600;2023-02-23T15:12:12;12.30;99.90
26954;DHT22;14508;50.924;11.600;2023-02-23T15:14:41;12.30;99.90
26954;DHT22;14508;50.924;11.600;2023-02-23T15:17:14;12.20;99.90
26954;DHT22;14508;50.924;11.600;2023-02-23T15:19:44;12.20;99.90
26954;DHT22;14508;50.924;11.600;2023-02-23T15:22:21;12.20;99.90
26954;DHT22;14508;50.924;11.600;2023-02-23T15:24:55;12.10;99.90
26954;DHT22;14508;50.924;11.600;2023-02-23T15:27:35;12.20;99.90
26954;DHT22;14508;50.924;11.600;2023-02-23T15:30:24;12.10;99.90
26954;DHT22;14508;50.924;11.600;2023-02-23T15:33:01;12.20;99.90
26954;DHT22;14508;50.924;11.600;2023-02-23T15:35:32;12.30;99.90
26954;DHT22;14508;50.924;11.600;2023-02-23T15:38:06;12.30;99.90
26954;DHT22;14508;50.924;11.600;2023-02-23T15:40:54;12.30;99.90
26954;DHT22;14508;50.924;11.600;2023-02-23T15:43:24;12.30;99.90
26954;DHT22;14508;50.924;11.600;2023-02-23T15:45:58;12.30;99.90
26954;DHT22;14508;50.924;11.600;2023-02-23T15:48:39;12.30;99.90
26954;DHT22;14508;50.924;11.600;2023-02-23T15:51:19;12.30;99.90
26954;DHT22;14508;50.924;11.600;2023-02-23T15:53:49;12.30;99.90
26954;DHT22;14508;50.924;11.600;2023-02-23T15:56:24;12.30;99.90
26954;DHT22;14508;50.924;11.600;2023-02-23T15:58:56;12.30;99.90
26954;DHT22;14508;50.924;11.600;2023-02-23T16:01:26;12.20;99.90
26954;DHT22;14508;50.924;11.600;2023-02-23T16:03:59;12.20;99.90
26954;DHT22;14508;50.924;11.600;2023-02-23T16:06:32;12.20;99.90
26954;DHT22;14508;50.924;11.600;2023-02-23T16:09:11;12.20;99.90
26954;DHT22;14508;50.924;11.600;2023-02-23T16:11:51;12.10;99.90